sensor_id;sensor_type;location;lat;lon;timestamp;pressure;altitude;pressure_sealevel;temperature;humidity
64453;BME280;50813;52.654;6.766;2023-03-25T00:00:09;99943.0;;;9.47;100.0
64453;BME280;50813;52.654;6.766;2023-03-25T00:01:46;99944.0;;;9.48;100.0
64453;BME280;50813;52.654;6.766;2023-03-25T00:03:23;99940.0;;;9.55;100.0
64453;BME280;50813;52.654;6.766;2023-03-25T00:06:36;99946.0;;;9.53;100.0
64453;BME280;50813;52.654;6.766;2023-03-25T00:08:12;99955.0;;;9.56;100.0
64453;BME280;50813;52.654;6.766;2023-03-25T00:09:48;99957.0;;;9.53;100.0
64453;BME280;50813;52.654;6.766;2023-03-25T00:13:00;99952.0;;;9.52;100.0
64453;BME280;50813;52.654;6.766;2023-03-25T00:14:36;99952.0;;;9.51;100.0
64453;BME280;50813;52.654;6.766;2023-03-25T00:16:13;99950.0;;;9.56;100.0
64453;BME280;50813;52.654;6.766;2023-03-25T00:19:26;99947.0;;;9.52;100.0
64453;BME280;50813;52.654;6.766;2023-03-25T00:21:04;99946.0;;;9.52;100.0
64453;BME280;50813;52.654;6.766;2023-03-25T00:22:41;99938.0;;;9.57;100.0
64453;BME280;50813;52.654;6.766;2023-03-25T00:24:17;99937.0;;;9.6;100.0
64453;BME280;50813;52.654;6.766;2023-03-25T00:27:30;99934.0;;;9.61;100.0
64453;BME280;50813;52.654;6.766;2023-03-25T00:29:06;99933.0;;;9.63;100.0
64453;BME280;50813;52.654;6.766;2023-03-25T00:30:43;99932.0;;;9.59;100.0
64453;BME280;50813;52.654;6.766;2023-03-25T00:33:55;99927.0;;;9.56;100.0
64453;BME280;50813;52.654;6.766;2023-03-25T00:35:31;99934.0;;;9.59;100.0
64453;BME280;50813;52.654;6.766;2023-03-25T00:37:08;99936.0;;;9.57;100.0
64453;BME280;50813;52.654;6.766;2023-03-25T00:40:24;99933.0;;;9.58;100.0
64453;BME280;50813;52.654;6.766;2023-03-25T00:42:01;99926.0;;;9.63;100.0
64453;BME280;50813;52.654;6.766;2023-03-25T00:43:37;99927.0;;;9.61;100.0
64453;BME280;50813;52.654;6.766;2023-03-25T00:45:13;99930.0;;;9.6;100.0
64453;BME280;50813;52.654;6.766;2023-03-25T00:48:25;99924.0;;;9.6;100.0
64453;BME280;50813;52.654;6.766;2023-03-25T00:50:02;99926.0;;;9.67;100.0
64453;BME280;50813;52.654;6.766;2023-03-25T00:51:39;99927.0;;;9.64;100.0
64453;BME280;50813;52.654;6.766;2023-03-25T00:54:51;99923.0;;;9.61;100.0
64453;BME280;50813;52.654;6.766;2023-03-25T00:56:27;99925.0;;;9.65;100.0
64453;BME280;50813;52.654;6.766;2023-03-25T00:58:04;99924.0;;;9.64;100.0
64453;BME280;50813;52.654;6.766;2023-03-25T01:01:18;99920.0;;;9.64;100.0
64453;BME280;50813;52.654;6.766;2023-03-25T01:02:56;99921.0;;;9.65;100.0
64453;BME280;50813;52.654;6.766;2023-03-25T01:04:32;99922.0;;;9.61;100.0
64453;BME280;50813;52.654;6.766;2023-03-25T01:06:09;99918.0;;;9.64;100.0
64453;BME280;50813;52.654;6.766;2023-03-25T01:09:22;99922.0;;;9.64;100.0
64453;BME280;50813;52.654;6.766;2023-03-25T01:10:58;99919.0;;;9.71;99.82
64453;BME280;50813;52.654;6.766;2023-03-25T01:12:34;99919.0;;;9.69;100.0
64453;BME280;50813;52.654;6.766;2023-03-25T01:15:50;99915.0;;;9.64;100.0
64453;BME280;50813;52.654;6.766;2023-03-25T01:17:26;99908.0;;;9.61;100.0
64453;BME280;50813;52.654;6.766;2023-03-25T01:19:02;99907.0;;;9.57;100.0
64453;BME280;50813;52.654;6.766;2023-03-25T01:22:15;99905.0;;;9.53;100.0
64453;BME280;50813;52.654;6.766;2023-03-25T01:23:51;99910.0;;;9.55;100.0
64453;BME280;50813;52.654;6.766;2023-03-25T01:25:27;99909.0;;;9.55;100.0
64453;BME280;50813;52.654;6.766;2023-03-25T01:27:04;99907.0;;;9.5;100.0
64453;BME280;50813;52.654;6.766;2023-03-25T01:30:17;99907.0;;;9.52;100.0
64453;BME280;50813;52.654;6.766;2023-03-25T01:31:53;99910.0;;;9.52;99.65
64453;BME280;50813;52.654;6.766;2023-03-25T01:33:29;99906.0;;;9.48;98.64
64453;BME280;50813;52.654;6.766;2023-03-25T01:36:43;99910.0;;;9.52;99.44
64453;BME280;50813;52.654;6.766;2023-03-25T01:38:19;99910.0;;;9.55;98.19
64453;BME280;50813;52.654;6.766;2023-03-25T01:39:56;99906.0;;;9.48;98.75
64453;BME280;50813;52.654;6.766;2023-03-25T01:43:11;99912.0;;;9.43;100.0
64453;BME280;50813;52.654;6.766;2023-03-25T01:45:22;99911.0;;;9.4;100.0
64453;BME280;50813;52.654;6.766;2023-03-25T01:47:27;99910.0;;;9.33;100.0
64453;BME280;50813;52.654;6.766;2023-03-25T01:49:07;99909.0;;;9.35;100.0
64453;BME280;50813;52.654;6.766;2023-03-25T01:50:48;99918.0;;;9.28;100.0
64453;BME280;50813;52.654;6.766;2023-03-25T01:52:31;99919.0;;;9.31;100.0
64453;BME280;50813;52.654;6.766;2023-03-25T01:55:44;99917.0;;;9.22;100.0
64453;BME280;50813;52.654;6.766;2023-03-25T01:57:22;99931.0;;;9.13;100.0
64453;BME280;50813;52.654;6.766;2023-03-25T01:59:01;99926.0;;;9.06;100.0
64453;BME280;50813;52.654;6.766;2023-03-25T02:00:41;99938.0;;;9.06;100.0
64453;BME280;50813;52.654;6.766;2023-03-25T02:03:58;99932.0;;;9.0;100.0
64453;BME280;50813;52.654;6.766;2023-03-25T02:05:40;99932.0;;;8.83;100.0
64453;BME280;50813;52.654;6.766;2023-03-25T02:07:18;99936.0;;;8.84;100.0
64453;BME280;50813;52.654;6.766;2023-03-25T02:08:55;99930.0;;;8.85;100.0
64453;BME280;50813;52.654;6.766;2023-03-25T02:12:10;99928.0;;;8.89;100.0
64453;BME280;50813;52.654;6.766;2023-03-25T02:13:46;99925.0;;;8.84;100.0
64453;BME280;50813;52.654;6.766;2023-03-25T02:15:23;99924.0;;;8.72;100.0
64453;BME280;50813;52.654;6.766;2023-03-25T02:18:58;99926.0;;;8.73;100.0
64453;BME280;50813;52.654;6.766;2023-03-25T02:20:56;99930.0;;;8.64;100.0
64453;BME280;50813;52.654;6.766;2023-03-25T02:24:22;99925.0;;;8.68;100.0
64453;BME280;50813;52.654;6.766;2023-03-25T02:27:48;99926.0;;;8.57;100.0
64453;BME280;50813;52.654;6.766;2023-03-25T02:33:56;99922.0;;;8.61;100.0
64453;BME280;50813;52.654;6.766;2023-03-25T02:36:04;99926.0;;;8.6;100.0
64453;BME280;50813;52.654;6.766;2023-03-25T02:38:01;99924.0;;;8.68;100.0
64453;BME280;50813;52.654;6.766;2023-03-25T02:39:55;99932.0;;;8.8;100.0
64453;BME280;50813;52.654;6.766;2023-03-25T02:41:41;99927.0;;;8.72;100.0
64453;BME280;50813;52.654;6.766;2023-03-25T02:43:22;99921.0;;;8.67;100.0
64453;BME280;50813;52.654;6.766;2023-03-25T02:45:05;99919.0;;;8.69;100.0
64453;BME280;50813;52.654;6.766;2023-03-25T02:46:49;99919.0;;;8.59;100.0
64453;BME280;50813;52.654;6.766;2023-03-25T02:48:39;99913.0;;;8.64;100.0
64453;BME280;50813;52.654;6.766;2023-03-25T02:52:04;99909.0;;;8.59;100.0
64453;BME280;50813;52.654;6.766;2023-03-25T02:53:45;99909.0;;;8.63;100.0
64453;BME280;50813;52.654;6.766;2023-03-25T02:55:24;99915.0;;;8.61;100.0
64453;BME280;50813;52.654;6.766;2023-03-25T02:57:04;99911.0;;;8.65;100.0
64453;BME280;50813;52.654;6.766;2023-03-25T03:00:23;99909.0;;;8.6;100.0
64453;BME280;50813;52.654;6.766;2023-03-25T03:02:05;99914.0;;;8.64;100.0
64453;BME280;50813;52.654;6.766;2023-03-25T03:03:42;99905.0;;;8.64;100.0
64453;BME280;50813;52.654;6.766;2023-03-25T03:05:21;99898.0;;;8.66;100.0
64453;BME280;50813;52.654;6.766;2023-03-25T03:08:53;99895.0;;;8.67;100.0
64453;BME280;50813;52.654;6.766;2023-03-25T03:11:24;99899.0;;;8.73;100.0
64453;BME280;50813;52.654;6.766;2023-03-25T03:13:11;99897.0;;;8.71;100.0
64453;BME280;50813;52.654;6.766;2023-03-25T03:15:02;99893.0;;;8.69;100.0
64453;BME280;50813;52.654;6.766;2023-03-25T03:16:47;99888.0;;;8.69;100.0
64453;BME280;50813;52.654;6.766;2023-03-25T03:18:39;99898.0;;;8.74;100.0
64453;BME280;50813;52.654;6.766;2023-03-25T03:20:24;99899.0;;;8.72;100.0
64453;BME280;50813;52.654;6.766;2023-03-25T03:22:17;99898.0;;;8.75;100.0
64453;BME280;50813;52.654;6.766;2023-03-25T03:25:47;99896.0;;;8.64;100.0
64453;BME280;50813;52.654;6.766;2023-03-25T03:27:28;99897.0;;;8.66;100.0
64453;BME280;50813;52.654;6.766;2023-03-25T03:29:11;99891.0;;;8.66;100.0
64453;BME280;50813;52.654;6.766;2023-03-25T03:30:54;99895.0;;;8.73;100.0
64453;BME280;50813;52.654;6.766;2023-03-25T03:32:39;99892.0;;;8.73;100.0
64453;BME280;50813;52.654;6.766;2023-03-25T03:36:04;99888.0;;;8.69;100.0
64453;BME280;50813;52.654;6.766;2023-03-25T03:37:46;99886.0;;;8.76;100.0
64453;BME280;50813;52.654;6.766;2023-03-25T03:39:29;99893.0;;;8.81;100.0
64453;BME280;50813;52.654;6.766;2023-03-25T03:41:09;99896.0;;;8.84;100.0
64453;BME280;50813;52.654;6.766;2023-03-25T03:44:32;99898.0;;;8.81;100.0
64453;BME280;50813;52.654;6.766;2023-03-25T03:46:14;99899.0;;;8.83;100.0
64453;BME280;50813;52.654;6.766;2023-03-25T03:47:56;99900.0;;;8.81;100.0
64453;BME280;50813;52.654;6.766;2023-03-25T03:49:37;99899.0;;;8.85;100.0
64453;BME280;50813;52.654;6.766;2023-03-25T03:53:02;99901.0;;;8.81;100.0
64453;BME280;50813;52.654;6.766;2023-03-25T03:54:44;99905.0;;;8.84;100.0
64453;BME280;50813;52.654;6.766;2023-03-25T03:56:25;99910.0;;;8.83;100.0
64453;BME280;50813;52.654;6.766;2023-03-25T03:58:08;99909.0;;;8.71;100.0
64453;BME280;50813;52.654;6.766;2023-03-25T03:59:52;99911.0;;;8.72;100.0
64453;BME280;50813;52.654;6.766;2023-03-25T04:03:17;99903.0;;;8.6;100.0
64453;BME280;50813;52.654;6.766;2023-03-25T04:04:55;99906.0;;;8.56;100.0
64453;BME280;50813;52.654;6.766;2023-03-25T04:06:35;99905.0;;;8.59;100.0
64453;BME280;50813;52.654;6.766;2023-03-25T04:08:17;99908.0;;;8.48;100.0
64453;BME280;50813;52.654;6.766;2023-03-25T04:11:49;99905.0;;;8.56;100.0
64453;BME280;50813;52.654;6.766;2023-03-25T04:13:34;99909.0;;;8.44;100.0
64453;BME280;50813;52.654;6.766;2023-03-25T04:15:17;99906.0;;;8.39;100.0
64453;BME280;50813;52.654;6.766;2023-03-25T04:16:54;99913.0;;;8.39;100.0
64453;BME280;50813;52.654;6.766;2023-03-25T04:18:30;99913.0;;;8.31;100.0
64453;BME280;50813;52.654;6.766;2023-03-25T04:21:46;99912.0;;;8.28;100.0
64453;BME280;50813;52.654;6.766;2023-03-25T04:23:22;99912.0;;;8.33;100.0
64453;BME280;50813;52.654;6.766;2023-03-25T04:24:58;99911.0;;;8.27;100.0
64453;BME280;50813;52.654;6.766;2023-03-25T04:28:11;99901.0;;;8.31;100.0
64453;BME280;50813;52.654;6.766;2023-03-25T04:29:47;99906.0;;;8.3;100.0
64453;BME280;50813;52.654;6.766;2023-03-25T04:31:24;99908.0;;;8.24;100.0
64453;BME280;50813;52.654;6.766;2023-03-25T04:34:36;99910.0;;;8.23;100.0
64453;BME280;50813;52.654;6.766;2023-03-25T04:36:13;99905.0;;;8.23;100.0
64453;BME280;50813;52.654;6.766;2023-03-25T04:37:50;99899.0;;;8.28;100.0
64453;BME280;50813;52.654;6.766;2023-03-25T04:39:26;99895.0;;;8.3;100.0
64453;BME280;50813;52.654;6.766;2023-03-25T04:44:14;99902.0;;;8.3;100.0
64453;BME280;50813;52.654;6.766;2023-03-25T04:45:50;99892.0;;;8.32;100.0
64453;BME280;50813;52.654;6.766;2023-03-25T04:49:03;99894.0;;;8.32;100.0
64453;BME280;50813;52.654;6.766;2023-03-25T04:50:40;99896.0;;;8.31;100.0
64453;BME280;50813;52.654;6.766;2023-03-25T04:55:28;99885.0;;;8.28;100.0
64453;BME280;50813;52.654;6.766;2023-03-25T04:57:05;99889.0;;;8.25;100.0
64453;BME280;50813;52.654;6.766;2023-03-25T04:58:41;99892.0;;;8.25;100.0
64453;BME280;50813;52.654;6.766;2023-03-25T05:01:56;99886.0;;;8.23;100.0
64453;BME280;50813;52.654;6.766;2023-03-25T05:03:32;99883.0;;;8.18;100.0
64453;BME280;50813;52.654;6.766;2023-03-25T05:05:09;99883.0;;;8.23;100.0
64453;BME280;50813;52.654;6.766;2023-03-25T05:06:46;99873.0;;;8.14;100.0
64453;BME280;50813;52.654;6.766;2023-03-25T05:10:00;99878.0;;;8.19;100.0
64453;BME280;50813;52.654;6.766;2023-03-25T05:11:37;99868.0;;;8.14;100.0
64453;BME280;50813;52.654;6.766;2023-03-25T05:13:15;99872.0;;;8.18;100.0
64453;BME280;50813;52.654;6.766;2023-03-25T05:16:28;99871.0;;;8.17;100.0
64453;BME280;50813;52.654;6.766;2023-03-25T05:18:05;99877.0;;;8.24;100.0
64453;BME280;50813;52.654;6.766;2023-03-25T05:19:42;99868.0;;;8.23;100.0
64453;BME280;50813;52.654;6.766;2023-03-25T05:21:18;99863.0;;;8.28;100.0
64453;BME280;50813;52.654;6.766;2023-03-25T05:24:31;99864.0;;;8.27;100.0
64453;BME280;50813;52.654;6.766;2023-03-25T05:26:07;99874.0;;;8.23;100.0
64453;BME280;50813;52.654;6.766;2023-03-25T05:27:44;99865.0;;;8.26;100.0
64453;BME280;50813;52.654;6.766;2023-03-25T05:30:56;99860.0;;;8.27;100.0
64453;BME280;50813;52.654;6.766;2023-03-25T05:32:32;99863.0;;;8.31;100.0
64453;BME280;50813;52.654;6.766;2023-03-25T05:34:08;99861.0;;;8.3;100.0
64453;BME280;50813;52.654;6.766;2023-03-25T05:37:22;99866.0;;;8.3;100.0
64453;BME280;50813;52.654;6.766;2023-03-25T05:38:58;99865.0;;;8.27;100.0
64453;BME280;50813;52.654;6.766;2023-03-25T05:40:34;99877.0;;;8.32;100.0
64453;BME280;50813;52.654;6.766;2023-03-25T05:43:46;99881.0;;;8.35;100.0
64453;BME280;50813;52.654;6.766;2023-03-25T05:45:23;99871.0;;;8.39;100.0
64453;BME280;50813;52.654;6.766;2023-03-25T05:46:58;99874.0;;;8.47;100.0
64453;BME280;50813;52.654;6.766;2023-03-25T05:48:35;99876.0;;;8.42;100.0
64453;BME280;50813;52.654;6.766;2023-03-25T05:51:48;99880.0;;;8.42;100.0
64453;BME280;50813;52.654;6.766;2023-03-25T05:53:24;99876.0;;;8.3;100.0
64453;BME280;50813;52.654;6.766;2023-03-25T05:55:00;99874.0;;;8.33;100.0
64453;BME280;50813;52.654;6.766;2023-03-25T05:58:12;99886.0;;;8.33;100.0
64453;BME280;50813;52.654;6.766;2023-03-25T05:59:49;99885.0;;;8.38;100.0
64453;BME280;50813;52.654;6.766;2023-03-25T06:01:25;99873.0;;;8.42;100.0
64453;BME280;50813;52.654;6.766;2023-03-25T06:04:37;99888.0;;;8.45;100.0
64453;BME280;50813;52.654;6.766;2023-03-25T06:06:14;99886.0;;;8.38;100.0
64453;BME280;50813;52.654;6.766;2023-03-25T06:07:51;99897.0;;;8.31;100.0
64453;BME280;50813;52.654;6.766;2023-03-25T06:09:27;99909.0;;;8.28;100.0
64453;BME280;50813;52.654;6.766;2023-03-25T06:12:40;99899.0;;;8.23;100.0
64453;BME280;50813;52.654;6.766;2023-03-25T06:14:16;99903.0;;;8.25;100.0
64453;BME280;50813;52.654;6.766;2023-03-25T06:15:52;99897.0;;;8.2;100.0
64453;BME280;50813;52.654;6.766;2023-03-25T06:19:04;99895.0;;;8.18;100.0
64453;BME280;50813;52.654;6.766;2023-03-25T06:20:41;99902.0;;;8.14;100.0
64453;BME280;50813;52.654;6.766;2023-03-25T06:22:17;99906.0;;;8.11;100.0
64453;BME280;50813;52.654;6.766;2023-03-25T06:25:32;99899.0;;;8.06;100.0
64453;BME280;50813;52.654;6.766;2023-03-25T06:27:12;99905.0;;;8.11;100.0
64453;BME280;50813;52.654;6.766;2023-03-25T06:28:49;99909.0;;;8.08;100.0
64453;BME280;50813;52.654;6.766;2023-03-25T06:30:25;99905.0;;;8.2;100.0
64453;BME280;50813;52.654;6.766;2023-03-25T06:33:38;99911.0;;;8.25;100.0
64453;BME280;50813;52.654;6.766;2023-03-25T06:35:16;99911.0;;;8.23;100.0
64453;BME280;50813;52.654;6.766;2023-03-25T06:36:52;99911.0;;;8.26;100.0
64453;BME280;50813;52.654;6.766;2023-03-25T06:40:05;99911.0;;;8.27;100.0
64453;BME280;50813;52.654;6.766;2023-03-25T06:41:43;99911.0;;;8.31;100.0
64453;BME280;50813;52.654;6.766;2023-03-25T06:43:19;99916.0;;;8.36;100.0
64453;BME280;50813;52.654;6.766;2023-03-25T06:46:32;99921.0;;;8.39;100.0
64453;BME280;50813;52.654;6.766;2023-03-25T06:48:08;99923.0;;;8.41;100.0
64453;BME280;50813;52.654;6.766;2023-03-25T06:49:44;99925.0;;;8.42;100.0
64453;BME280;50813;52.654;6.766;2023-03-25T06:51:20;99920.0;;;8.44;100.0
64453;BME280;50813;52.654;6.766;2023-03-25T06:54:33;99918.0;;;8.4;100.0
64453;BME280;50813;52.654;6.766;2023-03-25T06:56:10;99925.0;;;8.48;100.0
64453;BME280;50813;52.654;6.766;2023-03-25T06:57:46;99928.0;;;8.58;100.0
64453;BME280;50813;52.654;6.766;2023-03-25T07:00:58;99930.0;;;8.55;100.0
64453;BME280;50813;52.654;6.766;2023-03-25T07:02:34;99928.0;;;8.6;100.0
64453;BME280;50813;52.654;6.766;2023-03-25T07:04:10;99930.0;;;8.64;100.0
64453;BME280;50813;52.654;6.766;2023-03-25T07:07:24;99924.0;;;8.58;100.0
64453;BME280;50813;52.654;6.766;2023-03-25T07:09:01;99923.0;;;8.66;100.0
64453;BME280;50813;52.654;6.766;2023-03-25T07:10:37;99917.0;;;8.76;100.0
64453;BME280;50813;52.654;6.766;2023-03-25T07:12:13;99912.0;;;8.86;100.0
64453;BME280;50813;52.654;6.766;2023-03-25T07:15:25;99913.0;;;8.81;100.0
64453;BME280;50813;52.654;6.766;2023-03-25T07:17:02;99918.0;;;8.92;100.0
64453;BME280;50813;52.654;6.766;2023-03-25T07:18:38;99918.0;;;8.89;100.0
64453;BME280;50813;52.654;6.766;2023-03-25T07:21:51;99913.0;;;9.0;100.0
64453;BME280;50813;52.654;6.766;2023-03-25T07:23:27;99915.0;;;8.98;100.0
64453;BME280;50813;52.654;6.766;2023-03-25T07:25:04;99919.0;;;8.96;100.0
64453;BME280;50813;52.654;6.766;2023-03-25T07:28:17;99918.0;;;8.89;100.0
64453;BME280;50813;52.654;6.766;2023-03-25T07:29:54;99915.0;;;8.89;100.0
64453;BME280;50813;52.654;6.766;2023-03-25T07:31:30;99912.0;;;8.98;100.0
64453;BME280;50813;52.654;6.766;2023-03-25T07:33:06;99908.0;;;9.09;100.0
64453;BME280;50813;52.654;6.766;2023-03-25T07:36:19;99911.0;;;9.05;100.0
64453;BME280;50813;52.654;6.766;2023-03-25T07:37:55;99912.0;;;9.06;100.0
64453;BME280;50813;52.654;6.766;2023-03-25T07:39:31;99909.0;;;9.1;100.0
64453;BME280;50813;52.654;6.766;2023-03-25T07:42:47;99906.0;;;9.26;100.0
64453;BME280;50813;52.654;6.766;2023-03-25T07:44:23;99916.0;;;9.27;100.0
64453;BME280;50813;52.654;6.766;2023-03-25T07:45:59;99911.0;;;9.31;100.0
64453;BME280;50813;52.654;6.766;2023-03-25T07:49:12;99911.0;;;9.24;100.0
64453;BME280;50813;52.654;6.766;2023-03-25T07:50:51;99915.0;;;9.24;100.0
64453;BME280;50813;52.654;6.766;2023-03-25T07:52:28;99913.0;;;9.21;100.0
64453;BME280;50813;52.654;6.766;2023-03-25T07:54:04;99912.0;;;9.19;100.0
64453;BME280;50813;52.654;6.766;2023-03-25T07:57:16;99916.0;;;9.15;100.0
64453;BME280;50813;52.654;6.766;2023-03-25T07:58:52;99911.0;;;9.23;100.0
64453;BME280;50813;52.654;6.766;2023-03-25T08:00:29;99917.0;;;9.18;100.0
64453;BME280;50813;52.654;6.766;2023-03-25T08:03:42;99924.0;;;9.07;100.0
64453;BME280;50813;52.654;6.766;2023-03-25T08:05:18;99930.0;;;8.92;100.0
64453;BME280;50813;52.654;6.766;2023-03-25T08:06:54;99933.0;;;8.96;100.0
64453;BME280;50813;52.654;6.766;2023-03-25T08:10:07;99934.0;;;8.94;100.0
64453;BME280;50813;52.654;6.766;2023-03-25T08:11:43;99937.0;;;9.0;100.0
64453;BME280;50813;52.654;6.766;2023-03-25T08:13:19;99940.0;;;8.88;100.0
64453;BME280;50813;52.654;6.766;2023-03-25T08:14:55;99942.0;;;8.86;100.0
64453;BME280;50813;52.654;6.766;2023-03-25T08:18:08;99945.0;;;8.92;100.0
64453;BME280;50813;52.654;6.766;2023-03-25T08:19:44;99950.0;;;8.86;100.0
64453;BME280;50813;52.654;6.766;2023-03-25T08:21:20;99955.0;;;8.98;100.0
64453;BME280;50813;52.654;6.766;2023-03-25T08:24:32;99955.0;;;8.91;100.0
64453;BME280;50813;52.654;6.766;2023-03-25T08:27:45;99941.0;;;9.02;100.0
64453;BME280;50813;52.654;6.766;2023-03-25T08:30:57;99948.0;;;9.07;100.0
64453;BME280;50813;52.654;6.766;2023-03-25T08:32:35;99941.0;;;9.0;100.0
64453;BME280;50813;52.654;6.766;2023-03-25T08:34:12;99946.0;;;9.14;100.0
64453;BME280;50813;52.654;6.766;2023-03-25T08:37:24;99949.0;;;9.18;100.0
64453;BME280;50813;52.654;6.766;2023-03-25T08:39:01;99936.0;;;9.27;100.0
64453;BME280;50813;52.654;6.766;2023-03-25T08:40:37;99939.0;;;9.35;100.0
64453;BME280;50813;52.654;6.766;2023-03-25T08:42:17;99943.0;;;9.32;100.0
64453;BME280;50813;52.654;6.766;2023-03-25T08:45:29;99946.0;;;9.32;100.0
64453;BME280;50813;52.654;6.766;2023-03-25T08:47:07;99938.0;;;9.19;100.0
64453;BME280;50813;52.654;6.766;2023-03-25T08:48:43;99943.0;;;9.25;100.0
64453;BME280;50813;52.654;6.766;2023-03-25T08:51:56;99940.0;;;9.23;100.0
64453;BME280;50813;52.654;6.766;2023-03-25T08:53:33;99944.0;;;9.08;100.0
64453;BME280;50813;52.654;6.766;2023-03-25T08:55:10;99952.0;;;9.03;100.0
64453;BME280;50813;52.654;6.766;2023-03-25T08:56:46;99949.0;;;9.02;100.0
64453;BME280;50813;52.654;6.766;2023-03-25T08:59:59;99958.0;;;9.01;100.0
64453;BME280;50813;52.654;6.766;2023-03-25T09:01:35;99957.0;;;9.02;100.0
64453;BME280;50813;52.654;6.766;2023-03-25T09:03:12;99952.0;;;9.18;100.0
64453;BME280;50813;52.654;6.766;2023-03-25T09:06:24;99958.0;;;9.4;100.0
64453;BME280;50813;52.654;6.766;2023-03-25T09:08:00;99960.0;;;9.39;100.0
64453;BME280;50813;52.654;6.766;2023-03-25T09:09:37;99951.0;;;9.43;100.0
64453;BME280;50813;52.654;6.766;2023-03-25T09:12:48;99952.0;;;9.61;100.0
64453;BME280;50813;52.654;6.766;2023-03-25T09:14:25;99953.0;;;9.71;100.0
64453;BME280;50813;52.654;6.766;2023-03-25T09:16:01;99949.0;;;9.72;100.0
64453;BME280;50813;52.654;6.766;2023-03-25T09:19:14;99951.0;;;9.71;100.0
64453;BME280;50813;52.654;6.766;2023-03-25T09:20:50;99947.0;;;9.64;100.0
64453;BME280;50813;52.654;6.766;2023-03-25T09:22:27;99947.0;;;9.5;100.0
64453;BME280;50813;52.654;6.766;2023-03-25T09:24:03;99944.0;;;9.42;100.0
64453;BME280;50813;52.654;6.766;2023-03-25T09:27:16;99953.0;;;9.3;100.0
64453;BME280;50813;52.654;6.766;2023-03-25T09:28:52;99955.0;;;9.44;100.0
64453;BME280;50813;52.654;6.766;2023-03-25T09:30:28;99960.0;;;9.48;100.0
64453;BME280;50813;52.654;6.766;2023-03-25T09:33:40;99955.0;;;9.49;100.0
64453;BME280;50813;52.654;6.766;2023-03-25T09:35:17;99955.0;;;9.31;100.0
64453;BME280;50813;52.654;6.766;2023-03-25T09:36:54;99968.0;;;9.36;100.0
64453;BME280;50813;52.654;6.766;2023-03-25T09:40:10;99969.0;;;9.32;100.0
64453;BME280;50813;52.654;6.766;2023-03-25T09:42:03;99977.0;;;9.22;100.0
64453;BME280;50813;52.654;6.766;2023-03-25T09:44:13;99969.0;;;9.16;100.0
64453;BME280;50813;52.654;6.766;2023-03-25T09:45:54;99972.0;;;9.26;100.0
64453;BME280;50813;52.654;6.766;2023-03-25T09:47:32;99969.0;;;9.22;100.0
64453;BME280;50813;52.654;6.766;2023-03-25T09:49:14;99966.0;;;9.19;100.0
64453;BME280;50813;52.654;6.766;2023-03-25T09:52:33;99966.0;;;9.26;100.0
64453;BME280;50813;52.654;6.766;2023-03-25T09:54:17;99967.0;;;9.33;100.0
64453;BME280;50813;52.654;6.766;2023-03-25T09:55:58;99971.0;;;9.31;100.0
64453;BME280;50813;52.654;6.766;2023-03-25T09:57:42;99977.0;;;9.25;100.0
64453;BME280;50813;52.654;6.766;2023-03-25T10:01:07;99987.0;;;9.4;100.0
64453;BME280;50813;52.654;6.766;2023-03-25T10:03:05;99989.0;;;9.61;100.0
64453;BME280;50813;52.654;6.766;2023-03-25T10:04:56;99981.0;;;9.67;100.0
64453;BME280;50813;52.654;6.766;2023-03-25T10:06:42;99975.0;;;9.69;100.0
64453;BME280;50813;52.654;6.766;2023-03-25T10:08:33;99977.0;;;10.08;100.0
64453;BME280;50813;52.654;6.766;2023-03-25T10:10:22;99980.0;;;10.3;100.0
64453;BME280;50813;52.654;6.766;2023-03-25T10:13:53;99984.0;;;10.25;100.0
64453;BME280;50813;52.654;6.766;2023-03-25T10:15:39;99985.0;;;10.38;100.0
64453;BME280;50813;52.654;6.766;2023-03-25T10:17:25;99972.0;;;10.33;100.0
64453;BME280;50813;52.654;6.766;2023-03-25T10:19:20;99977.0;;;10.39;100.0
64453;BME280;50813;52.654;6.766;2023-03-25T10:21:05;99977.0;;;10.42;100.0
64453;BME280;50813;52.654;6.766;2023-03-25T10:22:58;99984.0;;;10.25;100.0
64453;BME280;50813;52.654;6.766;2023-03-25T10:24:42;99980.0;;;10.35;100.0
64453;BME280;50813;52.654;6.766;2023-03-25T10:28:06;99984.0;;;10.33;100.0
64453;BME280;50813;52.654;6.766;2023-03-25T10:29:50;99980.0;;;10.34;100.0
64453;BME280;50813;52.654;6.766;2023-03-25T10:31:32;99990.0;;;10.33;100.0
64453;BME280;50813;52.654;6.766;2023-03-25T10:33:15;99991.0;;;10.35;100.0
64453;BME280;50813;52.654;6.766;2023-03-25T10:36:41;99994.0;;;10.33;100.0
64453;BME280;50813;52.654;6.766;2023-03-25T10:38:22;99982.0;;;10.26;100.0
64453;BME280;50813;52.654;6.766;2023-03-25T10:40:12;99988.0;;;10.3;100.0
64453;BME280;50813;52.654;6.766;2023-03-25T10:41:55;99986.0;;;10.11;100.0
64453;BME280;50813;52.654;6.766;2023-03-25T10:43:34;99983.0;;;9.97;100.0
64453;BME280;50813;52.654;6.766;2023-03-25T10:46:56;99987.0;;;9.84;100.0
64453;BME280;50813;52.654;6.766;2023-03-25T10:48:33;99993.0;;;9.64;100.0
64453;BME280;50813;52.654;6.766;2023-03-25T10:50:13;99986.0;;;9.75;100.0
64453;BME280;50813;52.654;6.766;2023-03-25T10:51:51;99982.0;;;9.61;100.0
64453;BME280;50813;52.654;6.766;2023-03-25T10:55:12;99990.0;;;9.66;100.0
64453;BME280;50813;52.654;6.766;2023-03-25T10:57:02;99986.0;;;9.73;100.0
64453;BME280;50813;52.654;6.766;2023-03-25T10:58:41;99988.0;;;9.82;100.0
64453;BME280;50813;52.654;6.766;2023-03-25T11:00:19;99994.0;;;9.98;100.0
64453;BME280;50813;52.654;6.766;2023-03-25T11:03:35;99991.0;;;9.97;100.0
64453;BME280;50813;52.654;6.766;2023-03-25T11:05:16;99990.0;;;10.22;100.0
64453;BME280;50813;52.654;6.766;2023-03-25T11:06:56;99987.0;;;10.55;100.0
64453;BME280;50813;52.654;6.766;2023-03-25T11:08:34;99985.0;;;10.68;100.0
64453;BME280;50813;52.654;6.766;2023-03-25T11:11:53;99987.0;;;10.98;100.0
64453;BME280;50813;52.654;6.766;2023-03-25T11:13:29;99987.0;;;11.18;100.0
64453;BME280;50813;52.654;6.766;2023-03-25T11:15:12;99981.0;;;11.63;100.0
64453;BME280;50813;52.654;6.766;2023-03-25T11:18:34;99980.0;;;11.9;97.94
64453;BME280;50813;52.654;6.766;2023-03-25T11:20:18;99983.0;;;11.65;95.48
64453;BME280;50813;52.654;6.766;2023-03-25T11:22:00;99983.0;;;11.53;96.6
64453;BME280;50813;52.654;6.766;2023-03-25T11:23:42;99974.0;;;11.46;97.31
64453;BME280;50813;52.654;6.766;2023-03-25T11:25:24;99980.0;;;11.57;97.32
64453;BME280;50813;52.654;6.766;2023-03-25T11:28:40;99974.0;;;11.53;95.62
64453;BME280;50813;52.654;6.766;2023-03-25T11:30:19;99982.0;;;11.55;95.09
64453;BME280;50813;52.654;6.766;2023-03-25T11:32:03;99989.0;;;11.69;96.07
64453;BME280;50813;52.654;6.766;2023-03-25T11:33:41;99989.0;;;11.93;96.83